Terminal Aerodrome Forecast
Issued by NWS

Home | Current Version | Previous Version | Text Only | Print | Product List | Glossary On
Versions: 1 2 3 4 5 6 7 8 9 10 11 12 13
000
FTUS42 KMLB 242300
TAFSFB
TAF
KSFB 242320Z 2500/2524 12011KT P6SM VCSH FEW060 SCT080
     FM250200 VRB02KT P6SM FEW030 SCT080
      TEMPO 2510/2513 5SM BR SCT005
     FM251400 24008KT P6SM SKC=

USA.gov is the U.S. government's official web portal to all federal, state and local government web resources and services.